NOZ200 ENBO-ENGM

Flight info

Callsign NOZ200
Flight time N/A
Altitude 36000
Route DISMU DCT SOMUB DCT BELGU
Aircraft B737/M-SDE2E3FGHIRWXY/LB1

Departure

Time 2026-04-20 17:56
Airport Bodø Airport (ENBO)

Arrival

Time N/A
Airport Oslo-Gardermoen International Airport (ENGM)
Time Latitude Longitude Altitude Speed Heading
2026-04-20 17:28 67.27189 14.36918 46 ft 0 kts 292°
2026-04-20 17:50 67.27185 14.36937 46 ft 3 kts 292°
2026-04-20 17:50 67.27178 14.36984 44 ft 3 kts 292°
2026-04-20 17:51 67.27171 14.37027 42 ft 2 kts 292°
2026-04-20 17:51 67.27170 14.37032 43 ft 0 kts 292°
2026-04-20 17:53 67.27171 14.37022 45 ft 3 kts 286°
2026-04-20 17:53 67.27155 14.36988 43 ft 4 kts 192°
2026-04-20 17:53 67.27125 14.37029 46 ft 6 kts 126°
2026-04-20 17:53 67.27103 14.37109 48 ft 5 kts 121°
2026-04-20 17:54 67.27108 14.37277 52 ft 16 kts 77°
2026-04-20 17:54 67.27134 14.37576 50 ft 17 kts 77°
2026-04-20 17:54 67.27141 14.37655 55 ft 17 kts 77°
2026-04-20 17:54 67.27160 14.37945 50 ft 16 kts 88°
2026-04-20 17:55 67.27160 14.38221 55 ft 13 kts 93°
2026-04-20 17:55 67.27106 14.38380 50 ft 12 kts 177°
2026-04-20 17:55 67.27066 14.38255 53 ft 5 kts 257°
2026-04-20 17:55 67.27062 14.38209 53 ft 6 kts 257°
2026-04-20 17:56 67.27000 14.37470 47 ft 89 kts 258°
2026-04-20 17:56 67.26803 14.35199 182 ft 156 kts 256°
2026-04-20 17:56 67.26547 14.32341 1106 ft 171 kts 256°
2026-04-20 17:56 67.26222 14.29302 2231 ft 176 kts 254°
2026-04-20 17:57 67.25804 14.26344 3330 ft 184 kts 242°
2026-04-20 17:57 67.24796 14.23863 3757 ft 219 kts 219°
2026-04-20 17:57 67.23525 14.21435 4372 ft 233 kts 219°
2026-04-20 17:57 67.22233 14.18899 5208 ft 240 kts 220°
2026-04-20 17:58 67.20896 14.16212 5795 ft 258 kts 220°
2026-04-20 17:58 67.19333 14.13777 6743 ft 270 kts 198°
2026-04-20 17:58 67.17481 14.12963 7928 ft 272 kts 190°
2026-04-20 17:58 67.15584 14.12364 8970 ft 278 kts 189°
2026-04-20 17:59 67.13645 14.11770 10008 ft 283 kts 190°
2026-04-20 17:59 67.11668 14.11148 10961 ft 291 kts 190°
2026-04-20 17:59 67.09564 14.10457 11310 ft 320 kts 190°
2026-04-20 17:59 67.07281 14.09687 11836 ft 338 kts 190°
2026-04-20 18:00 67.04930 14.08890 12756 ft 343 kts 190°
2026-04-20 18:00 67.02611 14.08099 13736 ft 346 kts 191°
2026-04-20 18:00 67.00246 14.07293 14669 ft 350 kts 191°
2026-04-20 18:00 66.97818 14.06452 15544 ft 354 kts 191°
2026-04-20 18:01 66.95355 14.05600 16386 ft 359 kts 190°
2026-04-20 18:01 66.92873 14.04742 17250 ft 363 kts 191°
2026-04-20 18:01 66.90355 14.03866 18116 ft 367 kts 191°
2026-04-20 18:01 66.87810 14.02980 18947 ft 371 kts 191°
2026-04-20 18:02 66.85237 14.02089 19666 ft 375 kts 191°
2026-04-20 18:02 66.82634 14.01190 20424 ft 379 kts 191°
2026-04-20 18:02 66.80008 14.00285 21177 ft 383 kts 191°
2026-04-20 18:02 66.77387 13.99386 21901 ft 387 kts 191°
2026-04-20 18:03 66.74704 13.98466 22619 ft 391 kts 190°
2026-04-20 18:03 66.71995 13.97539 23342 ft 395 kts 190°
2026-04-20 18:03 66.69261 13.96606 24039 ft 399 kts 190°
2026-04-20 18:03 66.66501 13.95666 24602 ft 402 kts 190°
2026-04-20 18:04 66.63710 13.94717 25173 ft 406 kts 190°
2026-04-20 18:04 66.60901 13.93765 25733 ft 409 kts 190°
2026-04-20 18:04 66.58074 13.92809 26274 ft 412 kts 190°
2026-04-20 18:04 66.55222 13.91846 26808 ft 415 kts 190°
2026-04-20 18:05 66.49564 13.88655 27838 ft 419 kts 198°
2026-04-20 18:05 66.46764 13.86539 28352 ft 422 kts 199°
2026-04-20 18:05 66.43982 13.84407 28814 ft 426 kts 199°
2026-04-20 18:06 66.41140 13.82236 29289 ft 429 kts 199°
2026-04-20 18:06 66.38272 13.80065 29749 ft 432 kts 198°
2026-04-20 18:06 66.35387 13.77904 30212 ft 435 kts 198°
2026-04-20 18:06 66.32482 13.75747 30621 ft 437 kts 198°
2026-04-20 18:07 66.29554 13.73587 30955 ft 440 kts 198°
2026-04-20 18:07 66.26609 13.71425 31343 ft 441 kts 198°
2026-04-20 18:07 66.23667 13.69272 31818 ft 440 kts 198°
2026-04-20 18:07 66.20733 13.67133 32293 ft 439 kts 197°
2026-04-20 18:08 66.17805 13.65002 32720 ft 439 kts 197°
2026-04-20 18:08 66.14914 13.62902 33112 ft 439 kts 197°
2026-04-20 18:08 66.11980 13.60775 33535 ft 439 kts 197°
2026-04-20 18:08 66.09052 13.58659 33973 ft 438 kts 197°
2026-04-20 18:09 66.06126 13.56547 34401 ft 438 kts 197°
2026-04-20 18:09 66.03202 13.54443 34730 ft 438 kts 197°
2026-04-20 18:09 66.00272 13.52338 35000 ft 440 kts 197°
2026-04-20 18:09 65.97331 13.50231 35280 ft 441 kts 197°
2026-04-20 18:10 65.94385 13.48127 35548 ft 442 kts 197°
2026-04-20 18:10 65.91426 13.46018 35816 ft 443 kts 197°
2026-04-20 18:10 65.88500 13.43937 36063 ft 444 kts 197°
2026-04-20 18:10 65.85530 13.41829 36320 ft 445 kts 196°
2026-04-20 18:11 65.82547 13.39718 36459 ft 447 kts 196°
2026-04-20 18:11 65.79558 13.37608 36453 ft 447 kts 196°
2026-04-20 18:11 65.73583 13.33405 36454 ft 447 kts 196°
2026-04-20 18:12 65.67619 13.29229 36459 ft 445 kts 196°
2026-04-20 18:12 65.61666 13.25082 36459 ft 445 kts 196°
2026-04-20 18:13 65.55725 13.20962 36456 ft 444 kts 196°
2026-04-20 18:13 65.49786 13.16863 36462 ft 444 kts 195°
2026-04-20 18:14 65.43889 13.12812 36456 ft 444 kts 195°
2026-04-20 18:14 65.37953 13.08754 36458 ft 443 kts 195°
2026-04-20 18:15 65.32021 13.04717 36456 ft 443 kts 195°
2026-04-20 18:15 65.26079 13.00693 36457 ft 444 kts 195°
2026-04-20 18:16 65.21144 12.97365 36455 ft 444 kts 195°
2026-04-20 18:16 65.15198 12.93372 36454 ft 444 kts 195°
2026-04-20 18:17 65.08354 12.88800 36458 ft 444 kts 195°
2026-04-20 18:17 65.02404 12.84844 36453 ft 444 kts 195°
2026-04-20 18:18 64.97460 12.81571 36451 ft 444 kts 195°
2026-04-20 18:18 64.91515 12.77651 36455 ft 444 kts 195°
2026-04-20 18:19 64.85566 12.73747 36452 ft 444 kts 195°
2026-04-20 18:19 64.79619 12.69863 36459 ft 444 kts 195°
2026-04-20 18:20 64.73666 12.65992 36455 ft 444 kts 195°
2026-04-20 18:20 64.67713 12.62139 36445 ft 444 kts 194°
2026-04-20 18:21 64.61798 12.58328 36449 ft 444 kts 194°
2026-04-20 18:21 64.55969 12.54589 36444 ft 444 kts 194°
2026-04-20 18:22 64.50019 12.50790 36453 ft 444 kts 194°
2026-04-20 18:22 64.44064 12.47005 36448 ft 444 kts 194°
2026-04-20 18:23 64.38110 12.43237 36446 ft 444 kts 194°
2026-04-20 18:23 64.32205 12.39517 36463 ft 444 kts 194°
2026-04-20 18:24 64.26242 12.35777 36482 ft 444 kts 194°
2026-04-20 18:24 64.20281 12.32055 36497 ft 444 kts 194°
2026-04-20 18:25 64.14326 12.28354 36512 ft 444 kts 194°
2026-04-20 18:25 64.08371 12.24669 36519 ft 444 kts 194°
2026-04-20 18:26 64.02450 12.21020 36517 ft 444 kts 194°
2026-04-20 18:26 63.96485 12.17361 36509 ft 444 kts 194°
2026-04-20 18:27 63.90526 12.13722 36499 ft 444 kts 194°
2026-04-20 18:27 63.84559 12.10094 36478 ft 444 kts 194°
2026-04-20 18:28 63.78610 12.06492 36463 ft 444 kts 194°
2026-04-20 18:28 63.72708 12.02935 36464 ft 444 kts 194°
2026-04-20 18:29 63.66783 11.99379 36469 ft 444 kts 193°
2026-04-20 18:29 63.60816 11.95813 36471 ft 444 kts 193°
2026-04-20 18:30 63.54851 11.92264 36471 ft 444 kts 193°
2026-04-20 18:30 63.48883 11.88728 36483 ft 443 kts 193°
2026-04-20 18:31 63.42924 11.85212 36485 ft 443 kts 193°
2026-04-20 18:31 63.36996 11.81729 36482 ft 443 kts 193°
2026-04-20 18:32 63.31044 11.78200 36493 ft 443 kts 193°
2026-04-20 18:32 63.25096 11.74589 36492 ft 443 kts 194°
2026-04-20 18:33 63.19152 11.70985 36498 ft 442 kts 193°
2026-04-20 18:33 63.13214 11.67409 36499 ft 442 kts 193°
2026-04-20 18:34 63.07276 11.63856 36499 ft 442 kts 193°
2026-04-20 18:34 63.01374 11.60341 36503 ft 441 kts 193°
2026-04-20 18:35 62.95450 11.56827 36503 ft 441 kts 193°
2026-04-20 18:35 62.91472 11.54476 36504 ft 441 kts 193°